Corea, Maine
Current Conditions -  °F | °C
As of 8:35 AM on Wednesday 22 Oct 2014 (Local Time) from KBHB Reporting Station
Overcast Overcast  
Wind Chill: 43°   Ceiling: 1400
Heat Index: 48°   Visibility: 10mi
Dew Point: 48°   Wind: 14mph
Humidity: 100%   Direction: 20°NNE
Pressure: 30.16"   Gusts: 21mph
Location:  44.4°N, 67.98°W
Report Text: KBHB 221235Z AUTO 02012G18KT 10SM BKN014 BKN060 OVC090 09/09 A3016 RMK AO1 P0001
Loading
Personal Weather Stations






























Interactive Weather Map
Tropical Storm Tracking
New forecast layout! Learn more

10-Day Weather Forecast

Advertisements
Track Severe Weather on mobile